Time;durP1;ratioP1;P1;durP2;ratioP2;P2;SDS_P1;SDS_P2;PMS_P1;PMS_P2;Temp;Humidity;BMP_temperature;BMP_pressure;BME280_temperature;BME280_humidity;BME280_pressure;Samples;Min_cycle;Max_cycle;Signal;HPM_P1;HPM_P2
2022/06/30 00:00:46;;;;;;;18.60;16.60;;;;;;;;;;4921028;28;237033;-88
2022/06/30 00:03:17;;;;;;;17.52;15.70;;;;;;;18.31;94.41;68803.66;4800996;28;4507580;-90
2022/06/30 00:05:43;;;;;;;18.02;16.05;;;;;;;18.27;94.51;68799.69;4964695;28;20093;-90
2022/06/30 00:08:08;;;;;;;16.45;14.85;;;;;;;;;;4939056;28;20054;-88
2022/06/30 00:10:34;;;;;;;16.25;14.60;;;;;;;18.29;93.93;68801.38;4918999;28;20647;-90
2022/06/30 00:13:03;;;;;;;17.45;15.15;;;;;;;18.29;94.00;68812.72;4924818;28;20468;-90
2022/06/30 00:15:40;;;;;;;18.13;15.23;;;;;;;;;;4932508;28;20134;-90
2022/06/30 00:18:21;;;;;;;16.95;15.15;;;;;;;;;;4922664;28;20035;-89
2022/06/30 00:20:47;;;;;;;17.38;15.45;;;;;;;18.16;94.34;68792.50;4923194;28;20055;-90
2022/06/30 00:23:15;;;;;;;16.65;15.00;;;;;;;;;;4909843;28;20052;-89
2022/06/30 00:25:40;;;;;;;17.52;15.63;;;;;;;;;;4938658;28;20554;-89
2022/06/30 00:28:15;;;;;;;18.17;15.90;;;;;;;;;;4949236;28;20094;-90
2022/06/30 00:30:41;;;;;;;16.95;15.15;;;;;;;18.03;94.88;68772.84;4982446;28;20409;-88
2022/06/30 00:33:11;;;;;;;17.50;15.77;;;;;;;;;;4964913;28;20545;-90
2022/06/30 00:35:46;;;;;;;15.85;14.15;;;;;;;17.95;94.38;68763.69;4987900;28;20056;-90
2022/06/30 00:38:39;;;;;;;16.45;14.63;;;;;;;17.99;94.57;68773.66;4978467;28;20073;-89
2022/06/30 00:41:10;;;;;;;19.27;15.60;;;;;;;17.95;94.69;68769.09;4998641;28;20041;-90
2022/06/30 00:43:51;;;;;;;16.50;14.75;;;;;;;;;;4975691;28;20073;-91
2022/06/30 00:46:20;;;;;;;16.17;14.55;;;;;;;17.88;94.65;68761.69;4986191;28;20117;-88
2022/06/30 00:48:46;;;;;;;;;;;;;;;17.83;95.15;68750.00;4967017;28;20049;-89
2022/06/30 00:51:11;;;;;;;17.98;14.73;;;;;;;17.83;94.88;68745.19;4914166;28;19915;-88
2022/06/30 00:53:40;;;;;;;16.08;14.35;;;;;;;;;;4909041;29;20079;-90
2022/06/30 00:56:09;;;;;;;15.93;14.32;;;;;;;;;;4936046;29;20102;-89
2022/06/30 00:58:37;;;;;;;15.95;14.23;;;;;;;;;;4910569;29;20065;-88
2022/06/30 01:01:24;;;;;;;18.23;15.43;;;;;;;17.74;95.06;68746.25;4902817;29;20040;-89
2022/06/30 01:03:51;;;;;;;18.08;15.05;;;;;;;17.74;95.71;68748.94;4904507;29;20067;-90
2022/06/30 01:06:17;;;;;;;16.50;14.60;;;;;;;;;;4880602;29;20071;-89
2022/06/30 01:08:50;;;;;;;16.88;15.07;;;;;;;;;;4875582;29;20502;-90
2022/06/30 01:14:05;;;;;;;16.75;15.05;;;;;;;;;;4864167;29;20496;-89
2022/06/30 01:16:33;;;;;;;16.85;15.20;;;;;;;;;;4864486;29;20048;-90
2022/06/30 01:19:02;;;;;;;16.75;15.07;;;;;;;;;;4888095;29;20047;-92
2022/06/30 01:21:30;;;;;;;18.00;16.10;;;;;;;;;;4911304;28;20124;-89
2022/06/30 01:23:58;;;;;;;18.80;16.90;;;;;;;;;;4909833;28;20024;-90
2022/06/30 01:26:28;;;;;;;18.58;16.48;;;;;;;17.36;97.85;68704.03;4943991;28;20098;-90
2022/06/30 01:28:56;;;;;;;17.88;15.98;;;;;;;17.35;97.76;68705.00;4938169;28;20064;-91
2022/06/30 01:31:30;;;;;;;19.02;17.00;;;;;;;17.28;97.91;68694.88;4935595;28;20051;-90
2022/06/30 01:34:01;;;;;;;18.02;16.27;;;;;;;;;;4925467;28;20107;-88
2022/06/30 01:36:27;;;;;;;18.27;16.40;;;;;;;;;;4931789;28;20051;-89
2022/06/30 01:39:07;;;;;;;17.17;15.38;;;;;;;17.20;98.90;68690.56;4950437;28;20053;-91
2022/06/30 01:41:44;;;;;;;17.88;15.98;;;;;;;17.19;98.60;68684.06;4955759;28;20059;-89
2022/06/30 01:44:18;;;;;;;18.73;15.70;;;;;;;;;;4952978;28;20510;-89
2022/06/30 01:46:52;;;;;;;18.02;16.13;;;;;;;17.18;99.08;68683.50;4883650;29;20043;-90
2022/06/30 01:49:21;;;;;;;18.42;16.58;;;;;;;17.13;99.64;68678.34;4895561;29;20197;-89
2022/06/30 01:51:52;;;;;;;18.08;16.13;;;;;;;;;;4893456;29;20052;-90
2022/06/30 01:54:29;;;;;;;18.88;16.98;;;;;;;17.09;99.90;68673.22;4917993;29;20039;-90
2022/06/30 01:56:55;;;;;;;19.80;16.70;;;;;;;;;;4930357;28;20227;-90
2022/06/30 01:59:20;;;;;;;18.65;16.55;;;;;;;;;;4894718;28;20106;-89
2022/06/30 02:01:52;;;;;;;18.60;16.00;;;;;;;17.08;99.10;68666.69;4288688;29;9932108;-90
2022/06/30 02:07:04;;;;;;;18.45;16.45;;;;;;;17.05;100.00;68674.03;4868932;29;20097;-90
2022/06/30 02:09:29;;;;;;;19.65;17.27;;;;;;;17.03;100.00;68666.38;4900620;29;20075;-90
2022/06/30 02:14:57;;;;;;;20.08;16.90;;;;;;;;;;4882654;29;20067;-90
2022/06/30 02:17:23;;;;;;;20.30;18.13;;;;;;;;;;4884676;29;20134;-89
2022/06/30 02:19:54;;;;;;;18.08;16.15;;;;;;;;;;4900102;29;20048;-91
2022/06/30 02:22:28;;;;;;;19.90;17.58;;;;;;;16.88;100.00;68653.09;4920251;29;20050;-90
2022/06/30 02:24:59;;;;;;;18.63;16.77;;;;;;;16.87;100.00;68648.69;4879773;29;20160;-90
2022/06/30 02:27:33;;;;;;;18.85;16.92;;;;;;;16.86;100.00;68647.56;4904478;28;20189;-89
2022/06/30 02:30:02;;;;;;;19.92;17.73;;;;;;;16.85;100.00;68646.41;4939530;28;20051;-89
2022/06/30 02:32:30;;;;;;;19.25;16.65;;;;;;;;;;4943896;28;20046;-89
2022/06/30 02:35:01;;;;;;;19.88;17.75;;;;;;;16.77;100.00;68640.53;4969194;28;20617;-89
2022/06/30 02:37:29;;;;;;;19.17;17.25;;;;;;;16.82;100.00;68643.56;4895266;29;20527;-90
2022/06/30 02:40:02;;;;;;;19.52;17.40;;;;;;;;;;4890477;29;20056;-89
2022/06/30 02:42:33;;;;;;;18.98;16.95;;;;;;;16.77;100.00;68632.47;4881360;29;20072;-90
2022/06/30 02:45:02;;;;;;;18.35;16.45;;;;;;;16.71;100.00;68631.00;4885252;29;20051;-90
2022/06/30 02:47:38;;;;;;;19.02;17.02;;;;;;;16.69;100.00;68629.28;4907928;29;20059;-89
2022/06/30 02:50:04;;;;;;;22.75;18.20;;;;;;;;;;4874947;29;20169;-90
2022/06/30 02:52:33;;;;;;;20.27;17.80;;;;;;;;;;4887312;29;20057;-89
2022/06/30 02:55:11;;;;;;;21.25;17.77;;;;;;;16.66;100.00;68628.56;4885443;29;20568;-89
2022/06/30 02:57:37;;;;;;;18.80;16.70;;;;;;;16.63;100.00;68621.88;4857161;29;20056;-88
2022/06/30 03:00:10;;;;;;;21.33;18.42;;;;;;;16.63;100.00;68616.50;4868206;29;20228;-89
2022/06/30 03:02:37;;;;;;;20.52;18.15;;;;;;;16.61;100.00;68614.22;4861328;29;20128;-90
2022/06/30 03:05:09;;;;;;;19.92;17.83;;;;;;;16.56;100.00;68613.91;4865067;29;20044;-89
2022/06/30 03:07:40;;;;;;;19.10;17.20;;;;;;;16.51;100.00;68610.88;4884016;29;20135;-89
2022/06/30 03:10:19;;;;;;;20.08;17.98;;;;;;;16.47;100.00;68599.41;4883932;29;20753;-90
2022/06/30 03:12:54;;;;;;;20.77;18.58;;;;;;;16.42;100.00;68593.69;4914643;28;20086;-89
2022/06/30 03:15:19;;;;;;;20.45;18.27;;;;;;;16.37;100.00;68593.38;4890189;29;20449;-90
2022/06/30 03:17:45;;;;;;;19.95;17.52;;;;;;;16.37;100.00;68588.00;4914240;29;20050;-89
2022/06/30 03:20:11;;;;;;;20.15;18.15;;;;;;;16.36;100.00;68592.22;4910490;29;20054;-91
2022/06/30 03:22:36;;;;;;;22.05;19.30;;;;;;;16.33;100.00;68588.25;4915384;29;20272;-90
2022/06/30 03:25:02;;;;;;;21.23;18.63;;;;;;;16.34;100.00;68584.59;4907139;29;20032;-90
2022/06/30 03:27:42;;;;;;;21.17;18.88;;;;;;;16.32;100.00;68587.09;4908673;29;20049;-89
2022/06/30 03:30:13;;;;;;;21.00;18.75;;;;;;;16.31;100.00;68586.53;4943721;28;20050;-89
2022/06/30 03:32:41;;;;;;;21.58;18.85;;;;;;;16.30;100.00;68579.44;4937858;28;20117;-89
2022/06/30 03:35:13;;;;;;;23.03;18.97;;;;;;;16.27;100.00;68581.97;4948156;28;20538;-89
2022/06/30 03:37:50;;;;;;;23.17;20.65;;;;;;;;;;4966461;28;20095;-89
2022/06/30 03:40:18;;;;;;;22.17;19.77;;;;;;;;;;4955188;28;20058;-88
2022/06/30 03:42:43;;;;;;;25.47;20.73;;;;;;;;;;4965780;28;20038;-90
2022/06/30 03:45:12;;;;;;;23.05;20.65;;;;;;;16.26;100.00;68580.28;4964038;28;20126;-89
2022/06/30 03:47:40;;;;;;;24.80;22.15;;;;;;;16.31;100.00;68586.53;4953398;28;20578;-90
2022/06/30 03:50:14;;;;;;;23.25;20.85;;;;;;;16.33;100.00;68583.44;4982929;28;20089;-89
2022/06/30 03:52:52;;;;;;;24.33;21.73;;;;;;;;;;4993616;28;20209;-89
2022/06/30 03:55:20;;;;;;;23.60;20.88;;;;;;;16.32;100.00;68581.75;4949581;28;20077;-89
2022/06/30 03:57:48;;;;;;;25.23;21.38;;;;;;;;;;4965212;28;20503;-90
2022/06/30 04:00:29;;;;;;;23.17;20.77;;;;;;;16.33;100.00;68590.94;4942374;28;20733;-90
2022/06/30 04:03:05;;;;;;;24.55;21.95;;;;;;;16.31;100.00;68586.53;4905940;29;20054;-90
2022/06/30 04:05:33;;;;;;;25.42;22.33;;;;;;;16.33;100.00;68588.81;4923937;28;20051;-90
2022/06/30 04:08:06;;;;;;;23.88;21.38;;;;;;;;;;4922476;28;20460;-89
2022/06/30 04:10:31;;;;;;;24.80;21.08;;;;;;;;;;4900682;29;20044;-89
2022/06/30 04:12:59;;;;;;;23.10;20.67;;;;;;;16.45;100.00;68604.59;4897826;29;20042;-90
2022/06/30 04:15:28;;;;;;;24.65;21.08;;;;;;;;;;4884840;29;20115;-90
2022/06/30 04:17:53;;;;;;;24.98;21.60;;;;;;;16.62;100.00;68621.31;4850777;29;20052;-89
2022/06/30 04:20:24;;;;;;;26.13;22.13;;;;;;;16.69;100.00;68628.72;4847001;29;20045;-90
2022/06/30 04:22:54;;;;;;;23.33;20.92;;;;;;;16.74;100.00;68633.84;4887769;29;20056;-90
2022/06/30 04:25:28;;;;;;;24.10;20.70;;;;;;;;;;4878187;29;20053;-89
2022/06/30 04:27:56;;;;;;;24.83;21.85;;;;;;;;;;4867509;29;20052;-89
2022/06/30 04:33:14;;;;;;;24.75;20.95;;;;;;;;;;4827733;29;20057;-89
2022/06/30 04:35:42;;;;;;;22.63;20.23;;;;;;;;;;4824002;29;20056;-89
2022/06/30 04:38:10;;;;;;;21.92;19.73;;;;;;;;;;4834047;29;20503;-89
2022/06/30 04:43:22;;;;;;;21.45;19.15;;;;;;;;;;4846418;29;20079;-90
2022/06/30 04:45:48;;;;;;;22.17;19.88;;;;;;;17.68;100.00;68741.53;4847914;29;20065;-89
2022/06/30 04:48:13;;;;;;;23.02;19.63;;;;;;;17.77;100.00;68743.72;4850802;29;20044;-89
2022/06/30 04:50:44;;;;;;;21.25;19.00;;;;;;;17.86;100.00;68759.38;4858819;29;20629;-90
2022/06/30 04:53:10;;;;;;;22.83;19.48;;;;;;;17.94;100.00;68768.53;4835652;29;20218;-89
2022/06/30 04:55:35;;;;;;;20.95;18.75;;;;;;;;;;4846297;29;20062;-89
2022/06/30 04:58:05;;;;;;;21.75;19.45;;;;;;;;;;4887090;29;20582;-89
2022/06/30 05:00:31;;;;;;;21.42;19.13;;;;;;;;;;4876936;29;20097;-90
2022/06/30 05:02:56;;;;;;;21.15;18.58;;;;;;;;;;4872373;29;20122;-90
2022/06/30 05:05:22;;;;;;;21.80;19.58;;;;;;;18.27;100.00;68805.63;4881184;29;20083;-90
2022/06/30 05:07:47;;;;;;;22.13;19.65;;;;;;;;;;4930067;28;20508;-89
2022/06/30 05:10:23;;;;;;;21.60;19.35;;;;;;;18.40;99.68;68811.81;4922277;29;20111;-89
2022/06/30 05:12:59;;;;;;;21.42;19.23;;;;;;;;;;4921795;29;20058;-89
2022/06/30 05:15:27;;;;;;;21.75;19.33;;;;;;;18.60;99.95;68842.16;4930131;28;20099;-90
2022/06/30 05:17:53;;;;;;;21.02;18.83;;;;;;;18.64;99.65;68841.34;4888711;29;20066;-89
2022/06/30 05:20:26;;;;;;;21.45;18.67;;;;;;;18.71;98.79;68854.72;4904696;28;20710;-89
2022/06/30 05:22:51;;;;;;;20.48;18.48;;;;;;;;;;4891400;29;20055;-89
2022/06/30 05:28:04;;;;;;;21.60;19.15;;;;;;;19.01;98.87;68887.31;4924578;29;20054;-89
2022/06/30 05:30:31;;;;;;;20.25;18.15;;;;;;;;;;4921005;29;20047;-89
2022/06/30 05:32:57;;;;;;;21.00;18.90;;;;;;;19.22;97.29;68905.31;4906375;29;20094;-89
2022/06/30 05:35:25;;;;;;;19.13;17.05;;;;;;;19.31;98.13;68921.03;4891472;29;20421;-89
2022/06/30 05:37:53;;;;;;;20.37;18.13;;;;;;;19.36;97.66;68926.72;4914563;29;20048;-89
2022/06/30 05:40:19;;;;;;;19.75;17.80;;;;;;;;;;4881141;29;20296;-89
2022/06/30 05:42:44;;;;;;;20.25;18.08;;;;;;;19.52;96.35;68944.44;4894383;29;20047;-90
2022/06/30 05:45:13;;;;;;;21.23;17.05;;;;;;;19.63;95.84;68951.03;4884151;29;20049;-88
2022/06/30 05:47:55;;;;;;;19.95;17.85;;;;;;;19.68;95.41;68954.66;4875281;29;20646;-88
2022/06/30 05:50:20;;;;;;;18.48;16.63;;;;;;;;;;4936255;28;20503;-89
2022/06/30 05:52:51;;;;;;;20.48;17.42;;;;;;;19.89;94.16;68980.78;4950933;28;20038;-90
2022/06/30 05:55:23;;;;;;;20.23;17.63;;;;;;;19.96;93.93;68988.75;4952531;28;20550;-90
2022/06/30 05:57:51;;;;;;;19.02;16.95;;;;;;;;;;4934478;28;20046;-89
2022/06/30 06:00:19;;;;;;;19.47;17.57;;;;;;;;;;4976154;28;20038;-88
2022/06/30 06:02:45;;;;;;;20.20;18.10;;;;;;;20.25;94.11;69026.19;4959800;28;20047;-90
2022/06/30 06:05:14;;;;;;;18.98;16.77;;;;;;;20.38;93.43;69035.06;4955895;28;20191;-88
2022/06/30 06:07:40;;;;;;;;;;;;;;;20.47;92.41;69050.78;4980671;28;20043;-88
2022/06/30 06:10:08;;;;;;;18.40;16.48;;;;;;;;;;4981714;28;19936;-88
2022/06/30 06:12:34;;;;;;;19.60;17.50;;;;;;;;;;4982413;28;20042;-88
2022/06/30 06:14:59;;;;;;;19.67;17.55;;;;;;;20.72;92.86;69073.41;5004700;28;20116;-89
2022/06/30 06:17:29;;;;;;;19.23;17.42;;;;;;;20.82;91.76;69084.28;4993404;28;20469;-88
2022/06/30 06:20:16;;;;;;;18.80;16.35;;;;;;;20.93;90.86;69094.72;5005185;28;20054;-88
2022/06/30 06:22:45;;;;;;;19.02;16.80;;;;;;;21.06;91.53;69117.16;4991170;28;20454;-89
2022/06/30 06:25:12;;;;;;;18.85;16.90;;;;;;;21.17;91.00;69121.03;4984435;28;20061;-88
2022/06/30 06:27:38;;;;;;;20.48;17.02;;;;;;;21.30;89.60;69138.59;4966433;28;20085;-88
2022/06/30 06:30:05;;;;;;;20.05;17.23;;;;;;;21.38;89.14;69147.78;4968996;28;20410;-89
2022/06/30 06:32:31;;;;;;;19.75;17.33;;;;;;;;;;4973641;28;20066;-87
2022/06/30 06:35:00;;;;;;;19.40;17.40;;;;;;;21.63;88.38;69172.53;4945813;28;20079;-89
2022/06/30 06:37:25;;;;;;;20.88;18.73;;;;;;;;;;4879308;29;20068;-89
2022/06/30 06:39:51;;;;;;;19.77;16.95;;;;;;;;;;4893275;29;20079;-89
2022/06/30 06:42:20;;;;;;;20.02;17.95;;;;;;;21.90;85.92;69213.72;4875926;29;20431;-88
2022/06/30 06:44:51;;;;;;;22.98;17.95;;;;;;;21.91;84.71;69204.00;4853176;29;20041;-88
2022/06/30 06:47:17;;;;;;;20.63;18.13;;;;;;;21.96;84.66;69209.19;4854137;29;20037;-88
2022/06/30 06:49:44;;;;;;;22.50;18.67;;;;;;;22.02;84.46;69218.75;4866020;29;20048;-88
2022/06/30 06:52:15;;;;;;;22.10;19.17;;;;;;;22.08;83.50;69222.91;4874628;29;20052;-88
2022/06/30 06:54:40;;;;;;;21.48;17.70;;;;;;;22.20;83.09;69239.38;4891194;29;20049;-87
2022/06/30 06:57:11;;;;;;;24.10;20.23;;;;;;;22.25;82.73;69244.53;4919531;29;20684;-88
2022/06/30 06:59:37;;;;;;;21.13;18.77;;;;;;;22.37;83.41;69257.69;4922214;29;20060;-88
2022/06/30 07:02:03;;;;;;;22.40;18.80;;;;;;;22.47;82.99;69266.41;4942449;28;20074;-88
2022/06/30 07:04:29;;;;;;;23.63;19.83;;;;;;;22.50;81.81;69272.59;4949333;28;20770;-88
2022/06/30 07:06:57;;;;;;;22.15;17.98;;;;;;;22.58;82.04;69281.16;5004800;28;20042;-88
2022/06/30 07:09:22;;;;;;;24.55;19.65;;;;;;;;;;5048758;28;20165;-89
2022/06/30 07:11:50;;;;;;;21.15;18.02;;;;;;;22.66;80.75;69290.34;5056367;28;20036;-88
2022/06/30 07:14:19;;;;;;;21.33;19.02;;;;;;;22.72;80.94;69297.78;5082188;28;20100;-90
2022/06/30 07:16:44;;;;;;;22.53;18.77;;;;;;;22.83;82.08;69307.09;5033237;28;20047;-90
2022/06/30 07:19:09;;;;;;;19.38;17.33;;;;;;;22.95;80.74;69323.56;5047329;28;20037;-87
2022/06/30 07:21:35;;;;;;;21.52;19.23;;;;;;;23.07;79.40;69334.03;5047369;28;20136;-85
2022/06/30 07:24:03;;;;;;;20.38;18.27;;;;;;;23.12;79.28;69341.91;5028516;28;20060;-85
2022/06/30 07:26:29;;;;;;;21.10;18.90;;;;;;;23.12;79.12;69347.34;5028156;28;20503;-86
2022/06/30 07:28:54;;;;;;;21.27;18.10;;;;;;;23.20;78.96;69351.63;5030256;28;20040;-86
2022/06/30 07:31:20;;;;;;;22.67;19.00;;;;;;;;;;5043592;28;20549;-85
2022/06/30 07:33:46;;;;;;;20.83;17.00;;;;;;;23.37;77.19;69370.53;5044296;28;20052;-84
2022/06/30 07:36:12;;;;;;;21.60;17.42;;;;;;;23.46;77.10;69374.84;5043512;28;20025;-85
2022/06/30 07:38:39;;;;;;;18.98;15.25;;;;;;;;;;5036923;28;20120;-85
2022/06/30 07:41:08;;;;;;;18.05;16.15;;;;;;;23.58;75.81;69399.47;5044920;28;20106;-85
2022/06/30 07:43:33;;;;;;;15.98;13.73;;;;;;;23.65;74.43;69398.78;5017890;28;20061;-84
2022/06/30 07:45:59;;;;;;;15.73;13.50;;;;;;;23.77;74.75;69415.25;5051548;28;20056;-85
2022/06/30 07:48:24;;;;;;;16.58;14.30;;;;;;;23.85;73.62;69423.84;5037638;28;20033;-85
2022/06/30 07:50:49;;;;;;;16.83;14.60;;;;;;;23.93;73.27;69432.44;5045845;28;20664;-84
2022/06/30 07:53:16;;;;;;;16.90;14.90;;;;;;;24.05;73.34;69440.75;5047368;28;20060;-85
2022/06/30 07:55:42;;;;;;;18.27;15.05;;;;;;;24.18;73.45;69455.09;5029906;28;20040;-85
2022/06/30 07:58:11;;;;;;;16.10;12.95;;;;;;;24.32;72.05;69476.59;5032129;28;20124;-84
2022/06/30 08:00:36;;;;;;;;;;;;;;;24.39;70.27;69484.63;5074170;28;20029;-87
2022/06/30 08:03:02;;;;;;;16.60;13.68;;;;;;;;;;5072162;28;19911;-86
2022/06/30 08:05:27;;;;;;;16.55;12.93;;;;;;;24.44;70.01;69484.38;5074629;28;20029;-87
2022/06/30 08:07:53;;;;;;;15.38;13.75;;;;;;;24.51;69.39;69498.41;5073491;28;20021;-85
2022/06/30 08:10:18;;;;;;;15.52;13.90;;;;;;;24.56;69.68;69497.56;5034257;28;20071;-86
2022/06/30 08:12:44;;;;;;;18.45;14.15;;;;;;;24.57;69.04;69501.41;5047217;28;20515;-86
2022/06/30 08:15:10;;;;;;;15.30;12.65;;;;;;;24.56;69.02;69497.56;5046535;28;20408;-86
2022/06/30 08:17:35;;;;;;;12.63;10.95;;;;;;;24.67;67.19;69515.59;5045881;28;21287;-85
2022/06/30 08:20:01;;;;;;;12.57;10.65;;;;;;;24.91;67.35;69542.56;5043873;28;20044;-87
2022/06/30 08:22:26;;;;;;;15.02;11.27;;;;;;;24.88;66.21;69533.66;5045913;28;20041;-85
2022/06/30 08:24:52;;;;;;;14.48;12.50;;;;;;;24.91;66.30;69543.13;5046030;28;20049;-87
2022/06/30 08:27:17;;;;;;;16.00;12.18;;;;;;;24.88;66.14;69539.69;5032904;28;20040;-85
2022/06/30 08:29:43;;;;;;;15.55;11.35;;;;;;;24.94;65.38;69543.84;5058068;28;20417;-86
2022/06/30 08:32:11;;;;;;;14.32;10.25;;;;;;;25.03;63.27;69555.75;5033115;28;20044;-86
2022/06/30 08:34:37;;;;;;;12.73;9.10;;;;;;;25.12;64.27;69566.09;5048534;28;20673;-86
2022/06/30 08:37:02;;;;;;;11.95;9.77;;;;;;;25.31;63.47;69587.31;5027269;28;20053;-85
2022/06/30 08:42:12;;;;;;;10.73;7.60;;;;;;;25.36;61.45;69590.34;5049664;28;20047;-87
2022/06/30 08:44:42;;;;;;;10.20;6.35;;;;;;;25.40;59.18;69597.66;5053132;28;20540;-86
2022/06/30 08:47:12;;;;;;;10.90;5.85;;;;;;;25.38;58.69;69595.94;5036859;28;20125;-86
2022/06/30 08:49:37;;;;;;;6.68;5.47;;;;;;;25.47;60.81;69599.66;5036959;28;20045;-86
2022/06/30 08:52:12;;;;;;;9.30;6.85;;;;;;;25.49;58.21;69608.00;5051733;28;20048;-86
2022/06/30 08:54:39;;;;;;;9.45;6.05;;;;;;;25.59;58.52;69613.44;5056174;28;20045;-85
2022/06/30 08:57:06;;;;;;;12.35;7.03;;;;;;;25.57;58.95;69613.84;5049920;28;20049;-86
2022/06/30 08:59:32;;;;;;;10.10;7.72;;;;;;;;;;5031283;28;20072;-86
2022/06/30 09:01:57;;;;;;;6.75;4.80;;;;;;;25.85;56.39;69645.44;5049824;28;20663;-86
2022/06/30 09:04:23;;;;;;;7.38;5.50;;;;;;;25.97;57.46;69659.22;5046138;28;20554;-86
2022/06/30 09:06:48;;;;;;;8.32;6.05;;;;;;;26.02;58.02;69664.38;5032279;28;20069;-87
2022/06/30 09:09:14;;;;;;;7.95;5.63;;;;;;;26.02;59.68;69664.38;5054030;28;20412;-87
2022/06/30 09:11:49;;;;;;;8.50;6.07;;;;;;;26.07;57.00;69672.84;5043995;28;20049;-85
2022/06/30 09:14:36;;;;;;;8.77;6.22;;;;;;;26.08;57.49;69674.56;5049174;28;20068;-85
2022/06/30 09:17:13;;;;;;;7.65;5.40;;;;;;;26.14;56.38;69680.31;5048306;28;20116;-85
2022/06/30 09:19:57;;;;;;;11.23;4.50;;;;;;;26.25;55.20;69690.78;5045091;28;20041;-86
2022/06/30 09:22:34;;;;;;;6.15;4.32;;;;;;;26.34;54.89;69698.38;5024503;28;20064;-86
2022/06/30 09:25:08;;;;;;;7.03;4.88;;;;;;;26.28;54.45;69691.50;5046868;28;20110;-86
2022/06/30 09:27:35;;;;;;;6.80;4.82;;;;;;;26.43;55.83;69707.56;5049273;28;29494;-86
2022/06/30 09:30:12;;;;;;;7.63;5.20;;;;;;;26.37;54.47;69703.41;5051124;28;20052;-86
2022/06/30 09:32:43;;;;;;;9.10;5.00;;;;;;;26.43;56.14;69704.84;5050645;28;20048;-86
2022/06/30 09:35:10;;;;;;;9.32;3.50;;;;;;;26.55;52.38;69727.41;5034167;28;20045;-86
2022/06/30 09:37:37;;;;;;;4.80;3.22;;;;;;;26.67;50.92;69734.56;5053593;28;22158;-85
2022/06/30 09:40:12;;;;;;;6.22;2.90;;;;;;;26.78;48.75;69745.03;5053232;28;20033;-87
2022/06/30 09:42:46;;;;;;;4.13;2.58;;;;;;;26.88;49.45;69760.88;5049877;28;20052;-86
2022/06/30 09:45:14;;;;;;;5.15;2.80;;;;;;;26.94;47.33;69767.75;5040374;28;20072;-86
2022/06/30 09:47:54;;;;;;;4.05;2.60;;;;;;;27.09;49.21;69778.94;5046138;28;20105;-86
2022/06/30 09:50:20;;;;;;;4.63;2.63;;;;;;;27.11;48.04;69787.28;5040019;28;20045;-87
2022/06/30 09:53:03;;;;;;;4.43;3.28;;;;;;;26.99;47.54;69770.75;5046659;28;20071;-87
2022/06/30 09:55:37;;;;;;;7.05;3.50;;;;;;;27.05;47.71;69777.66;5039211;28;20048;-86
2022/06/30 09:58:26;;;;;;;7.72;3.03;;;;;;;27.16;48.19;69793.06;5044268;28;20540;-86
2022/06/30 10:00:51;;;;;;;;;;;;;;;27.28;48.23;69805.69;5026850;28;20045;-85
2022/06/30 10:03:19;;;;;;;5.45;2.80;;;;;;;27.33;46.70;69811.41;5043740;28;19948;-86
2022/06/30 10:05:46;;;;;;;4.63;3.17;;;;;;;27.31;46.94;69806.97;5045535;28;20425;-86
2022/06/30 10:08:14;;;;;;;6.68;3.03;;;;;;;27.23;44.34;69801.06;5035050;28;20231;-87
2022/06/30 10:10:41;;;;;;;7.23;2.33;;;;;;;27.23;44.00;69801.06;5041830;28;20075;-86
2022/06/30 10:13:14;;;;;;;4.20;2.40;;;;;;;27.34;44.28;69810.41;5051699;28;20497;-86
2022/06/30 10:15:40;;;;;;;5.20;2.40;;;;;;;27.31;44.56;69806.41;5052531;28;20115;-86
2022/06/30 10:18:13;;;;;;;7.45;3.20;;;;;;;27.15;44.54;69789.16;5052195;28;20029;-86
2022/06/30 10:20:40;;;;;;;4.68;2.40;;;;;;;27.12;45.02;69787.84;5019270;28;20120;-85
2022/06/30 10:23:09;;;;;;;8.10;2.90;;;;;;;27.27;44.76;69801.78;5044710;28;20041;-85
2022/06/30 10:25:36;;;;;;;6.70;2.70;;;;;;;27.40;45.71;69816.72;5051007;28;20106;-85
2022/06/30 10:28:19;;;;;;;6.18;2.40;;;;;;;27.73;44.99;69854.06;5048234;28;20047;-86
2022/06/30 10:30:49;;;;;;;6.30;2.90;;;;;;;27.73;43.58;69853.50;5029467;28;20037;-87
2022/06/30 10:33:25;;;;;;;6.97;2.28;;;;;;;27.65;44.19;69844.91;5030762;28;20038;-87
2022/06/30 10:36:11;;;;;;;;;;;;;;;;;;;;;
2022/06/30 10:38:52;;;;;;;7.22;2.80;;;;;;;27.78;42.21;69864.72;5042069;28;20418;-88
2022/06/30 10:41:20;;;;;;;7.82;2.80;;;;;;;27.59;43.23;69837.97;5049899;28;20401;-86
2022/06/30 10:44:21;;;;;;;7.18;3.10;;;;;;;27.76;42.32;69862.41;5052320;28;20045;-86
2022/06/30 10:46:56;;;;;;;5.40;3.08;;;;;;;27.75;44.27;69855.81;5018900;28;20120;-87
2022/06/30 10:49:24;;;;;;;6.57;3.75;;;;;;;27.75;45.73;69856.38;5051263;28;20114;-86
2022/06/30 10:51:50;;;;;;;6.72;3.25;;;;;;;27.88;44.96;69873.50;5050434;28;20041;-87
2022/06/30 10:54:33;;;;;;;6.22;2.65;;;;;;;28.04;43.72;69894.03;5031667;28;20033;-87
2022/06/30 10:56:59;;;;;;;4.43;2.63;;;;;;;27.97;43.24;69881.09;5033779;28;20419;-87
2022/06/30 10:59:28;;;;;;;4.78;2.70;;;;;;;28.11;43.14;69894.47;5032417;28;20040;-87
2022/06/30 11:02:15;;;;;;;4.18;2.78;;;;;;;28.06;42.82;69891.44;5033899;28;20570;-87
2022/06/30 11:04:49;;;;;;;9.10;2.80;;;;;;;27.83;41.59;69865.03;5049036;28;20041;-85
2022/06/30 11:07:20;;;;;;;6.25;2.10;;;;;;;28.00;41.48;69886.72;5048838;28;20037;-87
2022/06/30 11:09:57;;;;;;;6.00;2.20;;;;;;;28.08;40.90;69890.44;5047436;28;20048;-88
2022/06/30 11:12:50;;;;;;;3.97;1.38;;;;;;;28.17;38.33;69900.19;5049791;28;20053;-86
2022/06/30 11:15:16;;;;;;;5.00;2.35;;;;;;;28.08;40.07;69891.00;5053426;28;20033;-87
2022/06/30 11:17:41;;;;;;;5.15;2.38;;;;;;;28.04;41.02;69891.88;5078133;22;20168;-79
2022/06/30 11:20:12;;;;;;;7.78;2.67;;;;;;;27.90;40.99;69873.06;5034482;28;20033;-78
2022/06/30 11:22:38;;;;;;;5.07;2.53;;;;;;;28.17;41.54;69902.94;5038582;28;20049;-78
2022/06/30 11:25:07;;;;;;;4.65;2.38;;;;;;;28.37;40.93;69928.69;5031486;28;20043;-78
2022/06/30 11:27:34;;;;;;;5.53;2.50;;;;;;;28.50;40.79;69940.91;5039851;28;20057;-78
2022/06/30 11:30:02;;;;;;;5.43;2.60;;;;;;;28.67;39.53;69956.56;5036049;28;20401;-78
2022/06/30 11:32:28;;;;;;;5.35;2.65;;;;;;;28.87;41.79;69979.56;5050354;28;20040;-78
2022/06/30 11:34:54;;;;;;;5.85;3.00;;;;;;;28.91;40.51;69986.88;5050828;28;20575;-78
2022/06/30 11:37:24;;;;;;;7.70;2.92;;;;;;;28.77;41.20;69973.53;5042645;28;20049;-78
2022/06/30 11:40:05;;;;;;;5.50;3.30;;;;;;;28.79;41.87;69979.16;5041292;28;20048;-79
2022/06/30 11:42:32;;;;;;;7.40;3.90;;;;;;;28.58;41.91;69948.97;5050527;28;20079;-79
2022/06/30 11:44:57;;;;;;;5.75;3.40;;;;;;;28.40;42.93;69928.78;5030228;28;20131;-79
2022/06/30 11:47:23;;;;;;;8.18;3.00;;;;;;;28.30;42.51;69918.44;5040471;28;20136;-76
2022/06/30 11:49:57;;;;;;;9.25;3.38;;;;;;;28.50;42.26;69938.16;5044012;28;20041;-76
2022/06/30 11:52:23;;;;;;;4.70;3.28;;;;;;;28.54;42.11;69942.19;5043052;28;20606;-76
2022/06/30 11:54:54;;;;;;;6.50;3.13;;;;;;;28.55;41.21;69943.34;5037425;28;20107;-76
2022/06/30 11:57:30;;;;;;;6.50;3.30;;;;;;;28.61;42.01;69946.94;5041858;28;20045;-76
2022/06/30 12:00:00;;;;;;;7.75;2.97;;;;;;;28.66;41.74;69958.16;5022355;28;20132;-77
2022/06/30 12:02:26;;;;;;;5.38;3.10;;;;;;;28.58;41.54;69949.53;5042038;28;20710;-76
2022/06/30 12:04:53;;;;;;;5.28;2.53;;;;;;;28.76;41.69;69969.66;5043888;28;20063;-76
2022/06/30 12:07:19;;;;;;;4.83;2.47;;;;;;;28.81;40.21;69975.41;5042384;28;20557;-77
2022/06/30 12:09:45;;;;;;;5.30;2.80;;;;;;;28.96;40.26;69992.06;5026690;28;20175;-77
2022/06/30 12:12:18;;;;;;;5.88;2.72;;;;;;;29.00;39.72;69996.66;5041036;28;20114;-76
2022/06/30 12:14:45;;;;;;;5.45;2.38;;;;;;;29.37;39.74;70038.09;5037246;28;20104;-77
2022/06/30 12:17:12;;;;;;;8.82;3.22;;;;;;;29.35;38.80;70036.38;5037558;28;20044;-76
2022/06/30 12:19:43;;;;;;;8.43;2.45;;;;;;;29.51;39.21;70050.88;5042878;28;20777;-75
2022/06/30 12:22:08;;;;;;;7.35;2.83;;;;;;;29.52;38.29;70052.03;5048114;28;20114;-75
2022/06/30 12:24:41;;;;;;;4.95;2.50;;;;;;;29.53;39.59;70053.78;5029074;28;20091;-76
2022/06/30 12:27:08;;;;;;;5.13;2.65;;;;;;;29.42;39.44;70041.69;5047199;28;20072;-76
2022/06/30 12:29:34;;;;;;;5.63;2.97;;;;;;;29.37;40.22;70044.16;5046173;28;20044;-76